x

Jonesport, Me - 20 Nm Se Of Jonesport, Me (44027) Wave Buoy

8:50am - Tue 17th Jan 2017 All times are AST. -4 hours from GMT.

  • Sig Wave height 4.9ft
  • Swell Direction
  • Peak Period 7s
  • Average Period 5s
  • Wind
    22mph, 27mph gusts
  • Sea Temp 45°f
  • Air Temp 37°f
  • Sea Pressure 1023mb
  • Jonesport, Me - 20 Nm Se Of Jonesport, Me
  • Jonesport, Me - 20 Nm Se Of Jonesport, Me

More Historic Weather Station data

Upgrade to MSW Pro to gain access to the past 30 days of data for over 8000 Wavebouys and Weather Stations around the globe.

Join Pro

Comparision Forecast

View Surf forecast
   
Tue 01/17 8:50am 5ft 7s 5s 22 27 mph 1023mb 45f 37f
7:50am 4.5ft 7s 5s 25 29 mph 1021.8mb 45f 37f
6:50am 4.5ft 8s 5s 22 29 mph 1021mb 45f 38f
5:50am 5ft 8s 5s 20 25 mph 1020.1mb 45f 39f
4:50am 5ft 8s 6s 18 22 mph 1019.6mb 45f 39f
3:50am 5ft 7s 5s 16 18 mph 1020.1mb 45f 39f
2:50am 6ft 7s 6s 18 20 mph 1019.5mb 45f 39f
1:50am 6ft 8s 5s 20 25 mph 1018.7mb 45f 40f
12:50am 7.5ft 8s 6s 20 27 mph 1018.7mb 45f 40f
Mon 01/16 11:50pm 8.5ft 8s 6s 25 29 mph 1019mb 45f 40f
10:50pm 9ft 7s 6s 25 29 mph 1019.2mb 45f 41f
9:50pm 9.5ft 8s 6s 29 36 mph 1019.1mb 45f 41f
8:50pm 9ft 8s 6s 31 36 mph 1019.3mb 45f 41f
7:50pm 9.5ft 7s 6s 31 40 mph 1019.3mb 45f 41f
6:50pm 8ft 7s 6s 31 38 mph 1019.6mb 45f 40f
5:50pm 7ft 6s 5s 34 40 mph 1019.7mb 45f 40f
4:50pm 5.5ft 6s 5s 29 36 mph 1020.6mb 45f 39f
3:50pm 4.5ft 5s 4s 29 36 mph 1021.4mb 45f 37f
2:50pm 3.5ft 4s 4s 27 31 mph 1022.5mb 45f 37f
1:50pm 2.5ft 3s 3s 22 27 mph 1024.2mb 44f 34f
12:50pm 1.6ft 3s 3s 22 29 mph 1025.8mb 45f 32f
11:50am 1.3ft 2s 3s 16 20 mph 1027.9mb 45f 29f
10:50am 1ft 5s 4s 16 20 mph 1029mb 44f 28f
9:50am 1ft 5s 4s 9 16 mph 1030mb 45f 25f
8:50am 1.3ft 5s 4s 7 11 mph 1030.4mb 44f 24f
7:50am 1.6ft 5s 4s 4 7 mph 1030.8mb 44f 21f
6:50am 1.6ft 5s 4s  -  4 mph 1031.2mb 44f 20f
5:50am 1.6ft 5s 4s 2 7 mph 1030.7mb 44f 19f
4:50am 2ft 4s 4s 4 11 mph 1030.5mb 45f 19f
3:50am 2ft 4s 4s 7 11 mph 1030.6mb 44f 19f
2:50am 2.5ft 4s 4s 9 16 mph 1030.6mb 44f 19f
1:50am 2.5ft 4s 4s 13 18 mph 1029.4mb 44f 19f
12:50am 2.5ft 4s 4s 18 22 mph 1028.8mb 44f 20f
Sun 01/15 11:50pm 2.5ft 4s 4s 18 25 mph 1028.6mb 44f 21f
10:50pm 2.5ft 4s 4s 18 22 mph 1029.2mb 45f 21f
9:50pm 2.5ft 4s 4s 16 25 mph 1029.1mb 45f 22f
8:50pm 3ft 4s 4s 18 22 mph 1028.4mb 46f 24f
7:50pm 2.5ft 4s 4s 20 25 mph 1027.7mb 46f 25f
6:50pm 3ft 6s 4s 16 22 mph 1027.1mb 45f 26f
5:50pm 3ft 3s 4s 18 25 mph 1025.8mb 45f 26f
4:50pm 3.5ft 7s 4s 16 20 mph 1024.7mb 45f 26f
3:50pm 4ft 7s 4s 18 27 mph 1023.6mb 45f 26f
2:50pm 4.5ft 4s 4s 16 25 mph 1023.1mb 45f 26f
1:50pm 4.5ft 4s 4s 22 29 mph 1022.1mb 45f 26f
12:50pm 4.5ft 7s 5s 22 29 mph 1021.7mb 45f 26f
11:50am 4.5ft 6s 5s 25 34 mph 1021.6mb 45f 29f
10:50am 4.5ft 6s 4s 25 34 mph 1021.9mb 45f 30f
9:50am 4.5ft 4s 4s 25 31 mph 1021.8mb 46f 30f
8:50am 4.5ft 4s 4s 25 29 mph 1021.2mb 45f 30f
7:50am 3.5ft 6s 4s 25 31 mph 1020.4mb 45f 30f
6:50am 4ft 6s 4s 20 27 mph 1020.4mb 45f 30f
5:50am 3.5ft 5s 4s 25 31 mph 1020mb 45f 30f
4:50am 3ft 6s 4s 20 25 mph 1020.2mb 46f 30f
3:50am 3ft 6s 4s 18 25 mph 1020.7mb 45f 30f
2:50am 3ft 5s 4s 16 20 mph 1021.4mb 45f 30f
1:50am 2.5ft 5s 4s 16 20 mph 1021.8mb 45f 30f
12:50am 2.5ft 5s 4s 20 25 mph 1022.7mb 45f 31f
Sat 01/14 11:50pm 2.5ft 5s 4s 16 20 mph 1024.6mb 45f 26f
10:50pm 3.5ft 4s 4s 13 18 mph 1025.4mb 46f 26f
9:50pm 2.5ft 4s 3s 20 25 mph 1025.9mb 46f 30f
8:50pm 2ft 3s 4s 20 27 mph 1027.3mb 45f 28f
7:50pm 1.6ft 3s 4s 13 22 mph 1028.9mb 45f 26f
6:50pm 1.6ft 3s 4s 13 18 mph 1030.1mb 45f 24f
5:50pm 1.6ft 10s 4s 13 18 mph 1031.5mb 45f 22f
4:50pm 1.6ft 10s 4s 11 16 mph 1032.2mb 45f 20f
3:50pm 1.6ft 9s 4s 9 13 mph 1032.8mb 45f 20f
2:50pm 2.5ft 4s 4s 9 16 mph 1033.2mb 45f 18f
1:50pm 2.5ft 9s 4s 11 18 mph 1034.1mb 45f 17f
12:50pm 2.5ft 4s 4s 11 16 mph 1035.3mb 45f 15f
11:50am 2.5ft 4s 4s 11 18 mph 1036.5mb 45f 14f
10:50am 2.5ft 4s 4s 13 20 mph 1037.9mb 45f 13f
9:50am 3ft 4s 4s 16 18 mph 1038.4mb 45f 13f
8:50am 3ft 4s 4s 18 25 mph 1038.3mb 45f 14f
7:50am 3.5ft 4s 4s 18 25 mph 1038.2mb 45f 13f
6:50am 3.5ft 4s 4s 20 27 mph 1038.1mb 45f 14f
5:50am 3.5ft 4s 4s 20 27 mph 1037.6mb 45f 14f
4:50am 4.5ft 4s 4s 20 29 mph 1037.2mb 46f 14f
3:50am 4.5ft 5s 5s 20 25 mph 1036.8mb 46f 15f
2:50am 5.5ft 5s 5s 20 27 mph 1036.2mb 45f 17f
1:50am 5.5ft 5s 5s 27 34 mph 1035.4mb 45f 18f
12:50am 6ft 5s 5s 29 36 mph 1034.1mb 45f 19f
Fri 01/13 11:50pm 6.5ft 5s 5s 25 29 mph 1033.9mb 45f 20f
10:50pm 6.5ft 6s 5s 22 31 mph 1033.3mb 46f 22f
9:50pm 7ft 6s 5s 27 36 mph 1032.2mb 46f 24f
8:50pm 7.5ft 6s 5s 31 38 mph 1030.8mb 46f 26f
7:50pm 8ft 6s 5s 29 36 mph 1029.7mb 46f 29f
6:50pm 8ft 6s 5s 31 40 mph 1028.3mb 46f 31f
5:50pm 7ft 6s 5s 34 47 mph 1026.3mb 46f 34f
4:50pm 7ft 6s 5s 36 45 mph 1024.2mb 46f 36f
3:50pm 6.5ft 6s 5s 34 40 mph 1022.9mb 46f 38f
2:50pm 7ft 6s 6s 29 36 mph 1021.5mb 46f 38f